Time;durP1;ratioP1;P1;durP2;ratioP2;P2;SDS_P1;SDS_P2;PMS_P1;PMS_P2;Temp;Humidity;BMP_temperature;BMP_pressure;BME280_temperature;BME280_humidity;BME280_pressure;Samples;Min_cycle;Max_cycle;Signal;HPM_P1;HPM_P2
2022/06/01 00:01:23;;;;;;;;;0.67;0.67;;;;;;;;5079906;27;45276;-74
2022/06/01 00:03:49;;;;;;;;;0.33;0.33;;;;;;;;5073402;27;47045;-74
2022/06/01 00:06:15;;;;;;;;;0.00;0.00;;;;;;;;5070747;28;45925;-74
2022/06/01 00:08:40;;;;;;;;;0.00;0.00;;;;;;;;5073960;27;45492;-74
2022/06/01 00:11:06;;;;;;;;;1.00;1.00;;;;;;;;5059224;28;45291;-74
2022/06/01 00:13:31;;;;;;;;;0.00;0.00;;;;;;;;5072878;28;46002;-74
2022/06/01 00:15:57;;;;;;;;;2.67;1.00;;;;;;;;5078350;27;45377;-74
2022/06/01 00:18:22;;;;;;;;;0.00;0.00;;;;;;;;5077163;27;45250;-74
2022/06/01 00:20:48;;;;;;;;;1.00;1.00;;;;;;;;5070744;28;45440;-74
2022/06/01 00:23:13;;;;;;;;;2.00;1.33;;;;;;;;5074963;28;45315;-74
2022/06/01 00:25:38;;;;;;;;;1.00;1.00;;;;;;;;5060743;27;45453;-74
2022/06/01 00:28:04;;;;;;;;;0.00;0.00;;;;;;;;5069832;28;45311;-75
2022/06/01 00:30:29;;;;;;;;;1.00;1.00;;;;;;;;5068357;27;45395;-74
2022/06/01 00:32:55;;;;;;;;;2.00;2.00;;;;;;;;5070684;27;45467;-74
2022/06/01 00:35:22;;;;;;;;;0.67;0.67;;;;;;;;5077070;27;45483;-73
2022/06/01 00:37:47;;;;;;;;;0.33;0.33;;;;;;;;5060436;28;45355;-74
2022/06/01 00:40:13;;;;;;;;;1.00;1.00;;;;;;;;5071321;27;45461;-74
2022/06/01 00:42:40;;;;;;;;;0.00;0.00;;;;;;;;5064028;28;47718;-74
2022/06/01 00:45:06;;;;;;;;;1.00;1.00;;;;;;;;5065008;28;45424;-74
2022/06/01 00:47:31;;;;;;;;;1.33;1.33;;;;;;;;5076278;27;45401;-75
2022/06/01 00:50:00;;;;;;;;;1.00;1.00;;;;;;;;5058857;28;45382;-74
2022/06/01 00:52:35;;;;;;;;;0.67;0.67;;;;;;;;5085990;27;46185;-73
2022/06/01 00:55:11;;;;;;;;;0.67;0.67;;;;;;;;5062384;27;45784;-74
2022/06/01 00:57:37;;;;;;;;;1.25;1.25;;;;;;;;5063849;27;45540;-74
2022/06/01 01:00:11;;;;;;;;;1.00;1.00;;;;;;;;5061156;28;45475;-73
2022/06/01 01:02:37;;;;;;;;;1.00;1.00;;;;;;;;5070732;28;45386;-74
2022/06/01 01:05:04;;;;;;;;;2.00;0.33;;;;;;;;5073470;27;45366;-74
2022/06/01 01:07:30;;;;;;;;;1.00;1.00;;;;;;;;5072252;28;45457;-74
2022/06/01 01:09:55;;;;;;;;;1.00;1.00;;;;;;;;5070034;27;45471;-75
2022/06/01 01:12:20;;;;;;;;;0.33;0.33;;;;;;;;5072604;27;45505;-74
2022/06/01 01:14:45;;;;;;;;;1.67;0.00;;;;;;;;5069953;28;45490;-74
2022/06/01 01:17:11;;;;;;;;;1.75;1.00;;;;;;;;5074384;28;45445;-74
2022/06/01 01:19:40;;;;;;;;;1.00;1.00;;;;;;;;5072535;27;45386;-73
2022/06/01 01:22:22;;;;;;;;;0.00;0.00;;;;;;;;5069478;28;46492;-74
2022/06/01 01:25:07;;;;;;;;;3.00;0.33;;;;;;;;5069811;27;45394;-73
2022/06/01 01:27:33;;;;;;;;;1.33;0.00;;;;;;;;5066133;27;45275;-74
2022/06/01 01:29:58;;;;;;;;;1.00;1.00;;;;;;;;5069561;28;45347;-74
2022/06/01 01:32:23;;;;;;;;;1.00;1.00;;;;;;;;5072431;28;45948;-74
2022/06/01 01:34:48;;;;;;;;;1.00;1.00;;;;;;;;5072236;28;45204;-74
2022/06/01 01:37:18;;;;;;;;;1.67;1.67;;;;;;;;5061201;27;45516;-74
2022/06/01 01:39:43;;;;;;;;;1.00;1.00;;;;;;;;5060694;28;47056;-74
2022/06/01 01:42:08;;;;;;;;;1.67;1.00;;;;;;;;5060225;28;47148;-74
2022/06/01 01:44:37;;;;;;;;;1.00;1.00;;;;;;;;5071073;27;45416;-74
2022/06/01 01:47:02;;;;;;;;;1.00;1.00;;;;;;;;5073636;27;45371;-74
2022/06/01 01:49:32;;;;;;;;;1.00;1.00;;;;;;;;5071782;28;45334;-75
2022/06/01 01:51:59;;;;;;;;;0.00;0.00;;;;;;;;5069347;27;45446;-74
2022/06/01 01:54:37;;;;;;;;;2.00;1.00;;;;;;;;5068614;27;45369;-73
2022/06/01 01:57:18;;;;;;;;;0.50;0.50;;;;;;;;5069059;28;45371;-74
2022/06/01 01:59:49;;;;;;;;;0.00;0.00;;;;;;;;5060466;27;45432;-74
2022/06/01 02:02:35;;;;;;;;;0.00;0.00;;;;;;;;5057543;28;46412;-74
2022/06/01 02:08:21;;;;;;;;;1.00;1.00;;;;;;;;5072637;27;45355;-74
2022/06/01 02:13:31;;;;;;;;;1.00;1.00;;;;;;;;4998776;28;45492;-74
2022/06/01 02:15:57;;;;;;;;;1.00;1.00;;;;;;;;5016267;28;45460;-74
2022/06/01 02:18:28;;;;;;;;;1.00;1.00;;;;;;;;5018120;28;45424;-74
2022/06/01 02:21:02;;;;;;;;;3.33;1.33;;;;;;;;5012422;28;45508;-73
2022/06/01 02:23:31;;;;;;;;;1.00;1.00;;;;;;;;5011955;28;45634;-74
2022/06/01 02:25:58;;;;;;;;;1.00;1.00;;;;;;;;5009795;28;45683;-73
2022/06/01 02:28:24;;;;;;;;;2.33;1.00;;;;;;;;4999638;28;45594;-75
2022/06/01 02:30:49;;;;;;;;;1.00;1.00;;;;;;;;5000780;28;45480;-73
2022/06/01 02:33:18;;;;;;;;;1.25;1.25;;;;;;;;5002969;28;45586;-74
2022/06/01 02:35:45;;;;;;;;;1.50;0.25;;;;;;;;5001230;28;45614;-74
2022/06/01 02:38:14;;;;;;;;;3.00;1.75;;;;;;;;5008108;28;45442;-74
2022/06/01 02:40:39;;;;;;;;;0.67;0.00;;;;;;;;5008828;28;45511;-74
2022/06/01 02:43:04;;;;;;;;;1.00;1.00;;;;;;;;5001845;28;46593;-74
2022/06/01 02:45:29;;;;;;;;;0.33;0.33;;;;;;;;5022697;28;45577;-74
2022/06/01 02:47:59;;;;;;;;;1.00;1.00;;;;;;;;5062017;27;45440;-73
2022/06/01 02:50:27;;;;;;;;;0.00;0.00;;;;;;;;5071671;27;45606;-73
2022/06/01 02:52:53;;;;;;;;;0.25;0.25;;;;;;;;5069502;28;47236;-74
2022/06/01 02:55:21;;;;;;;;;0.67;0.67;;;;;;;;5070220;28;45309;-74
2022/06/01 02:57:46;;;;;;;;;1.00;1.00;;;;;;;;5068578;27;45378;-74
2022/06/01 03:00:19;;;;;;;;;2.00;2.00;;;;;;;;5066736;28;45765;-74
2022/06/01 03:02:46;;;;;;;;;0.75;0.75;;;;;;;;5055697;27;45528;-74
2022/06/01 03:05:11;;;;;;;;;0.67;0.67;;;;;;;;5082683;27;45573;-74
2022/06/01 03:07:37;;;;;;;;;0.67;0.67;;;;;;;;5062545;27;45314;-74
2022/06/01 03:10:02;;;;;;;;;0.33;0.33;;;;;;;;5071210;28;45347;-73
2022/06/01 03:12:27;;;;;;;;;1.00;1.00;;;;;;;;5068447;27;45587;-74
2022/06/01 03:14:52;;;;;;;;;1.00;1.00;;;;;;;;5063056;28;45464;-74
2022/06/01 03:17:18;;;;;;;;;1.00;1.00;;;;;;;;5062974;27;45464;-74
2022/06/01 03:19:43;;;;;;;;;1.00;1.00;;;;;;;;5066137;27;45265;-74
2022/06/01 03:22:08;;;;;;;;;6.00;1.00;;;;;;;;5071744;28;45975;-74
2022/06/01 03:24:34;;;;;;;;;1.00;1.00;;;;;;;;5071433;28;45383;-74
2022/06/01 03:26:59;;;;;;;;;0.33;0.33;;;;;;;;5072752;28;45578;-74
2022/06/01 03:29:24;;;;;;;;;1.00;1.00;;;;;;;;5071443;27;45439;-74
2022/06/01 03:31:50;;;;;;;;;1.00;1.00;;;;;;;;5074127;28;45993;-73
2022/06/01 03:34:15;;;;;;;;;1.00;1.00;;;;;;;;5072749;28;45380;-74
2022/06/01 03:36:41;;;;;;;;;0.00;0.00;;;;;;;;5066430;27;45577;-74
2022/06/01 03:39:06;;;;;;;;;1.00;1.00;;;;;;;;5063155;28;45424;-74
2022/06/01 03:41:31;;;;;;;;;0.33;0.33;;;;;;;;5073021;28;45426;-74
2022/06/01 03:46:40;;;;;;;;;1.75;1.75;;;;;;;;5074270;28;45421;-74
2022/06/01 03:49:05;;;;;;;;;1.00;1.00;;;;;;;;5065348;27;45521;-74
2022/06/01 03:51:31;;;;;;;;;1.67;1.00;;;;;;;;5065693;27;45549;-74
2022/06/01 03:53:56;;;;;;;;;1.00;1.00;;;;;;;;5072580;27;45327;-74
2022/06/01 03:56:22;;;;;;;;;1.75;1.75;;;;;;;;5071238;27;45263;-74
2022/06/01 03:58:49;;;;;;;;;2.67;1.00;;;;;;;;5074282;28;45259;-74
2022/06/01 04:01:15;;;;;;;;;1.00;1.00;;;;;;;;5077298;27;47146;-74
2022/06/01 04:03:40;;;;;;;;;3.00;1.00;;;;;;;;5070874;28;45350;-76
2022/06/01 04:06:09;;;;;;;;;1.00;1.00;;;;;;;;5070894;28;45396;-75
2022/06/01 04:08:34;;;;;;;;;1.00;1.00;;;;;;;;5063574;27;45343;-73
2022/06/01 04:10:59;;;;;;;;;1.00;1.00;;;;;;;;5058691;27;47017;-74
2022/06/01 04:13:26;;;;;;;;;0.00;0.00;;;;;;;;5073485;27;45455;-73
2022/06/01 04:15:52;;;;;;;;;1.00;1.00;;;;;;;;5071275;27;45540;-74
2022/06/01 04:18:17;;;;;;;;;1.00;1.00;;;;;;;;5074680;27;45355;-74
2022/06/01 04:20:43;;;;;;;;;1.00;1.00;;;;;;;;5058679;28;46043;-74
2022/06/01 04:23:08;;;;;;;;;0.50;0.50;;;;;;;;5076424;27;45553;-73
2022/06/01 04:25:33;;;;;;;;;0.75;0.75;;;;;;;;5080462;27;45425;-73
2022/06/01 04:27:59;;;;;;;;;1.00;1.00;;;;;;;;5070676;28;45465;-73
2022/06/01 04:30:24;;;;;;;;;1.50;1.50;;;;;;;;5069818;27;46855;-74
2022/06/01 04:32:50;;;;;;;;;1.00;1.00;;;;;;;;5065774;27;45405;-73
2022/06/01 04:35:17;;;;;;;;;1.25;1.00;;;;;;;;5059005;28;45320;-73
2022/06/01 04:37:42;;;;;;;;;1.75;0.50;;;;;;;;5059365;27;45369;-73
2022/06/01 04:40:08;;;;;;;;;1.00;1.00;;;;;;;;5070992;27;45416;-72
2022/06/01 04:42:34;;;;;;;;;1.00;1.00;;;;;;;;5070785;27;45561;-73
2022/06/01 04:44:59;;;;;;;;;1.00;1.00;;;;;;;;5070636;27;45560;-74
2022/06/01 04:47:25;;;;;;;;;0.00;0.00;;;;;;;;5075012;27;45523;-75
2022/06/01 04:49:50;;;;;;;;;1.50;1.00;;;;;;;;5075064;27;45567;-75
2022/06/01 04:52:15;;;;;;;;;1.50;1.00;;;;;;;;5073145;27;45462;-75
2022/06/01 04:54:40;;;;;;;;;0.75;0.75;;;;;;;;5081361;27;46083;-75
2022/06/01 04:57:06;;;;;;;;;2.25;1.25;;;;;;;;5077702;27;45541;-75
2022/06/01 04:59:32;;;;;;;;;1.00;1.00;;;;;;;;5059447;27;46935;-75
2022/06/01 05:01:57;;;;;;;;;1.25;1.25;;;;;;;;5070285;27;45562;-75
2022/06/01 05:04:22;;;;;;;;;3.00;1.00;;;;;;;;5073074;27;45440;-75
2022/06/01 05:06:47;;;;;;;;;1.00;1.00;;;;;;;;5063184;28;45532;-75
2022/06/01 05:09:13;;;;;;;;;1.00;1.00;;;;;;;;5068919;27;45417;-74
2022/06/01 05:11:38;;;;;;;;;1.25;1.25;;;;;;;;5075798;27;45619;-75
2022/06/01 05:14:07;;;;;;;;;1.50;1.50;;;;;;;;5059654;27;45226;-73
2022/06/01 05:16:32;;;;;;;;;1.00;1.00;;;;;;;;5081645;27;45322;-74
2022/06/01 05:18:58;;;;;;;;;2.00;2.00;;;;;;;;5070147;27;46593;-74
2022/06/01 05:21:23;;;;;;;;;1.75;1.75;;;;;;;;5066144;27;45443;-74
2022/06/01 05:23:48;;;;;;;;;1.00;1.00;;;;;;;;5062306;27;45455;-74
2022/06/01 05:26:14;;;;;;;;;1.00;1.00;;;;;;;;5081006;27;45411;-74
2022/06/01 05:28:39;;;;;;;;;2.75;2.75;;;;;;;;5071574;28;45449;-74
2022/06/01 05:31:06;;;;;;;;;1.00;1.00;;;;;;;;5057957;28;45546;-75
2022/06/01 05:33:31;;;;;;;;;2.00;2.00;;;;;;;;5066827;27;45371;-74
2022/06/01 05:35:57;;;;;;;;;1.00;1.00;;;;;;;;5079980;27;45485;-73
2022/06/01 05:38:22;;;;;;;;;1.00;1.00;;;;;;;;5057596;28;45449;-75
2022/06/01 05:40:47;;;;;;;;;2.00;2.00;;;;;;;;5069980;27;45401;-74
2022/06/01 05:43:14;;;;;;;;;1.50;1.50;;;;;;;;5061350;28;45463;-74
2022/06/01 05:45:39;;;;;;;;;3.75;1.00;;;;;;;;5064114;27;45469;-74
2022/06/01 05:48:06;;;;;;;;;2.00;2.00;;;;;;;;5073083;27;45422;-73
2022/06/01 05:50:31;;;;;;;;;2.00;2.00;;;;;;;;5072631;28;45405;-75
2022/06/01 05:52:56;;;;;;;;;2.25;1.25;;;;;;;;5057446;28;45807;-74
2022/06/01 05:55:22;;;;;;;;;0.67;0.67;;;;;;;;5071647;28;45272;-74
2022/06/01 05:57:47;;;;;;;;;2.00;2.00;;;;;;;;5069148;27;46098;-74
2022/06/01 06:00:12;;;;;;;;;2.00;1.00;;;;;;;;5069205;28;45442;-74
2022/06/01 06:02:39;;;;;;;;;2.50;1.25;;;;;;;;5069828;28;45553;-74
2022/06/01 06:06:11;;;;;;;;;2.25;1.75;;;;;;;;5072694;27;45809;-74
2022/06/01 06:07:49;;;;;;;;;1.00;1.00;;;;;;;;5071824;28;46179;-75
2022/06/01 06:10:14;;;;;;;;;1.00;1.00;;;;;;;;5059685;28;45294;-75
2022/06/01 06:12:41;;;;;;;;;1.00;1.00;;;;;;;;5060644;27;46251;-74
2022/06/01 06:15:06;;;;;;;;;1.75;1.00;;;;;;;;5060717;28;45510;-75
2022/06/01 06:17:32;;;;;;;;;2.00;2.00;;;;;;;;5072844;27;45597;-75
2022/06/01 06:19:57;;;;;;;;;1.75;1.75;;;;;;;;5060880;27;45674;-75
2022/06/01 06:22:25;;;;;;;;;1.00;1.00;;;;;;;;5059958;28;45382;-75
2022/06/01 06:24:50;;;;;;;;;1.00;1.00;;;;;;;;5066603;28;45551;-75
2022/06/01 06:27:15;;;;;;;;;2.00;2.00;;;;;;;;5068531;28;46837;-75
2022/06/01 06:29:41;;;;;;;;;1.00;1.00;;;;;;;;5068454;27;45385;-75
2022/06/01 06:32:06;;;;;;;;;3.00;1.50;;;;;;;;5071838;28;45239;-74
2022/06/01 06:34:31;;;;;;;;;1.00;1.00;;;;;;;;5069025;28;45367;-75
2022/06/01 06:36:57;;;;;;;;;1.00;1.00;;;;;;;;5061501;27;45500;-74
2022/06/01 06:39:22;;;;;;;;;1.00;1.00;;;;;;;;5062424;28;45370;-74
2022/06/01 06:41:47;;;;;;;;;1.25;1.25;;;;;;;;5073244;28;45425;-74
2022/06/01 06:44:12;;;;;;;;;2.25;2.25;;;;;;;;5075942;27;45278;-75
2022/06/01 06:46:37;;;;;;;;;0.00;0.00;;;;;;;;5062578;28;45265;-75
2022/06/01 06:49:03;;;;;;;;;2.75;1.00;;;;;;;;5073627;27;45417;-74
2022/06/01 06:51:28;;;;;;;;;2.00;1.00;;;;;;;;5071498;27;45462;-75
2022/06/01 06:53:53;;;;;;;;;1.00;1.00;;;;;;;;5086761;27;45509;-74
2022/06/01 06:56:20;;;;;;;;;1.50;1.50;;;;;;;;5058384;28;47252;-74
2022/06/01 06:58:45;;;;;;;;;2.50;2.00;;;;;;;;5061965;27;45391;-74
2022/06/01 07:01:10;;;;;;;;;2.00;2.00;;;;;;;;5077969;27;45705;-75
2022/06/01 07:03:35;;;;;;;;;1.00;1.00;;;;;;;;5071884;28;45421;-75
2022/06/01 07:06:11;;;;;;;;;3.00;1.00;;;;;;;;5072317;28;45399;-75
2022/06/01 07:08:38;;;;;;;;;1.25;1.25;;;;;;;;5073318;27;45329;-74
2022/06/01 07:11:03;;;;;;;;;1.75;1.75;;;;;;;;5059634;28;45481;-75
2022/06/01 07:13:28;;;;;;;;;3.00;1.75;;;;;;;;5074625;27;45510;-74
2022/06/01 07:16:08;;;;;;;;;1.25;1.25;;;;;;;;5071146;27;46190;-75
2022/06/01 07:18:34;;;;;;;;;2.00;2.00;;;;;;;;5067149;28;49219;-75
2022/06/01 07:20:59;;;;;;;;;3.00;1.25;;;;;;;;5062885;28;45413;-75
2022/06/01 07:23:25;;;;;;;;;1.25;1.00;;;;;;;;5074498;27;45400;-74
2022/06/01 07:25:51;;;;;;;;;2.00;2.00;;;;;;;;5079274;27;46130;-75
2022/06/01 07:28:16;;;;;;;;;2.25;2.00;;;;;;;;5065844;27;45420;-75
2022/06/01 07:30:42;;;;;;;;;1.00;1.00;;;;;;;;5067369;28;45249;-73
2022/06/01 07:33:07;;;;;;;;;6.00;2.00;;;;;;;;5071489;27;45339;-74
2022/06/01 07:35:32;;;;;;;;;1.00;1.00;;;;;;;;5073062;27;46343;-74
2022/06/01 07:43:27;;;;;;;;;2.00;2.00;;;;;;;;5086201;27;45321;-75
2022/06/01 07:45:52;;;;;;;;;4.00;2.25;;;;;;;;5073107;27;46004;-75
2022/06/01 07:48:17;;;;;;;;;1.00;1.00;;;;;;;;5069368;27;45407;-75
2022/06/01 07:50:43;;;;;;;;;1.75;1.00;;;;;;;;5059863;28;45464;-75
2022/06/01 07:53:09;;;;;;;;;2.25;2.00;;;;;;;;5075584;27;45519;-72
2022/06/01 07:55:35;;;;;;;;;1.25;1.25;;;;;;;;5073175;27;46114;-73
2022/06/01 07:58:00;;;;;;;;;2.00;0.50;;;;;;;;5062933;28;45480;-75
2022/06/01 08:00:25;;;;;;;;;2.00;2.00;;;;;;;;5065035;28;45500;-75
2022/06/01 08:02:51;;;;;;;;;2.00;1.25;;;;;;;;5075755;27;45422;-75
2022/06/01 08:05:17;;;;;;;;;3.00;2.00;;;;;;;;5079820;27;46248;-75
2022/06/01 08:07:43;;;;;;;;;1.50;1.50;;;;;;;;5088208;27;45693;-75
2022/06/01 08:10:09;;;;;;;;;3.25;1.00;;;;;;;;5067036;27;45316;-75
2022/06/01 08:15:18;;;;;;;;;1.00;1.00;;;;;;;;5068022;28;45817;-75
2022/06/01 08:17:46;;;;;;;;;5.00;3.00;;;;;;;;5065744;27;45618;-75
2022/06/01 08:20:12;;;;;;;;;2.25;1.50;;;;;;;;5061611;27;45439;-75
2022/06/01 08:22:38;;;;;;;;;1.50;1.50;;;;;;;;5072859;28;45358;-75
2022/06/01 08:25:03;;;;;;;;;2.00;2.00;;;;;;;;5062185;27;46118;-75
2022/06/01 08:27:28;;;;;;;;;1.00;1.00;;;;;;;;5062275;27;45454;-75
2022/06/01 08:29:53;;;;;;;;;1.00;1.00;;;;;;;;5070817;27;45516;-74
2022/06/01 08:32:19;;;;;;;;;1.00;1.00;;;;;;;;5074591;28;45216;-75
2022/06/01 08:34:44;;;;;;;;;1.00;1.00;;;;;;;;5073030;28;46003;-74
2022/06/01 08:37:09;;;;;;;;;2.00;1.00;;;;;;;;5074434;27;45549;-74
2022/06/01 08:39:34;;;;;;;;;2.67;1.67;;;;;;;;5065916;28;45518;-74
2022/06/01 08:42:01;;;;;;;;;3.00;1.00;;;;;;;;5061330;28;45410;-75
2022/06/01 08:44:46;;;;;;;;;2.50;1.00;;;;;;;;5062451;27;46227;-75
2022/06/01 08:47:35;;;;;;;;;1.00;1.00;;;;;;;;5058916;28;45585;-75
2022/06/01 08:50:03;;;;;;;;;2.50;2.50;;;;;;;;5054038;28;45347;-75
2022/06/01 08:52:29;;;;;;;;;1.00;1.00;;;;;;;;5072614;27;45433;-75
2022/06/01 08:54:55;;;;;;;;;3.50;2.25;;;;;;;;5062713;28;46241;-74
2022/06/01 08:57:24;;;;;;;;;2.00;1.25;;;;;;;;5061357;27;45343;-74
2022/06/01 08:59:58;;;;;;;;;3.00;1.75;;;;;;;;5061749;27;45474;-75
2022/06/01 09:02:26;;;;;;;;;2.00;1.25;;;;;;;;5058378;28;45383;-75
2022/06/01 09:05:00;;;;;;;;;2.00;2.00;;;;;;;;5071915;28;45264;-75
2022/06/01 09:07:25;;;;;;;;;1.00;1.00;;;;;;;;5060979;27;45543;-75
2022/06/01 09:10:10;;;;;;;;;0.00;0.00;;;;;;;;5075053;27;45364;-75
2022/06/01 09:12:35;;;;;;;;;2.25;2.00;;;;;;;;5074836;27;45520;-73
2022/06/01 09:15:06;;;;;;;;;2.00;1.67;;;;;;;;5068507;28;46176;-75
2022/06/01 09:17:33;;;;;;;;;1.00;1.00;;;;;;;;5071759;27;45467;-75
2022/06/01 09:22:43;;;;;;;;;1.00;1.00;;;;;;;;5072480;28;45375;-75
2022/06/01 09:25:16;;;;;;;;;2.25;2.25;;;;;;;;5061148;27;46694;-75
2022/06/01 09:27:43;;;;;;;;;1.00;1.00;;;;;;;;5065744;28;45418;-74
2022/06/01 09:30:17;;;;;;;;;0.67;0.67;;;;;;;;5071855;27;45403;-75
2022/06/01 09:32:57;;;;;;;;;3.00;1.50;;;;;;;;5060249;27;45360;-74
2022/06/01 09:35:26;;;;;;;;;0.75;0.75;;;;;;;;5057763;27;47448;-75
2022/06/01 09:37:52;;;;;;;;;1.33;1.33;;;;;;;;5058594;28;45509;-74
2022/06/01 09:40:22;;;;;;;;;1.00;1.00;;;;;;;;5070875;27;45342;-75
2022/06/01 09:42:49;;;;;;;;;1.00;1.00;;;;;;;;5063087;27;45262;-74
2022/06/01 09:45:25;;;;;;;;;1.00;1.00;;;;;;;;5060525;28;46182;-75
2022/06/01 09:47:51;;;;;;;;;0.00;0.00;;;;;;;;5060880;27;45394;-74
2022/06/01 09:50:34;;;;;;;;;2.00;2.00;;;;;;;;5058104;28;45434;-75
2022/06/01 09:53:01;;;;;;;;;3.00;1.00;;;;;;;;5072795;27;45278;-75
2022/06/01 09:55:27;;;;;;;;;1.33;1.33;;;;;;;;5059956;27;47240;-75
2022/06/01 09:58:08;;;;;;;;;1.00;1.00;;;;;;;;5062810;27;45441;-75
2022/06/01 10:06:25;;;;;;;;;1.00;1.00;;;;;;;;5059709;28;45913;-75
2022/06/01 10:08:55;;;;;;;;;0.75;0.75;;;;;;;;5068660;27;45411;-75
2022/06/01 10:11:21;;;;;;;;;0.00;0.00;;;;;;;;5071642;28;45579;-75
2022/06/01 10:13:50;;;;;;;;;1.00;1.00;;;;;;;;5076082;27;45528;-75
2022/06/01 10:16:27;;;;;;;;;0.75;0.25;;;;;;;;5073685;28;45335;-75
2022/06/01 10:18:53;;;;;;;;;1.00;1.00;;;;;;;;5065382;28;45358;-74
2022/06/01 10:21:21;;;;;;;;;1.00;1.00;;;;;;;;5072353;27;45415;-75
2022/06/01 10:23:50;;;;;;;;;1.00;1.00;;;;;;;;5074994;27;45377;-75
2022/06/01 10:26:19;;;;;;;;;1.00;0.67;;;;;;;;5075477;28;45379;-75
2022/06/01 10:28:46;;;;;;;;;1.33;1.00;;;;;;;;5073780;27;45377;-75
2022/06/01 10:31:34;;;;;;;;;4.50;1.00;;;;;;;;5072933;28;45319;-75
2022/06/01 10:34:03;;;;;;;;;1.50;1.50;;;;;;;;5072408;28;45512;-75
2022/06/01 10:36:48;;;;;;;;;3.00;2.00;;;;;;;;5071339;27;46189;-74
2022/06/01 10:39:21;;;;;;;;;1.00;1.00;;;;;;;;5064055;28;45456;-75
2022/06/01 10:41:49;;;;;;;;;1.00;1.00;;;;;;;;5075177;28;45450;-75
2022/06/01 10:44:21;;;;;;;;;1.33;1.00;;;;;;;;5070786;27;45439;-75
2022/06/01 10:46:49;;;;;;;;;1.33;1.33;;;;;;;;5074206;28;46114;-74
2022/06/01 10:49:29;;;;;;;;;0.33;0.33;;;;;;;;5063749;28;45491;-75
2022/06/01 10:52:00;;;;;;;;;1.00;1.00;;;;;;;;5066689;27;46128;-75
2022/06/01 10:54:34;;;;;;;;;1.00;1.00;;;;;;;;5071900;27;45453;-75
2022/06/01 10:56:59;;;;;;;;;1.00;1.00;;;;;;;;5071549;28;47099;-75
2022/06/01 10:59:25;;;;;;;;;2.00;2.00;;;;;;;;5075053;27;45557;-75
2022/06/01 11:01:51;;;;;;;;;1.00;1.00;;;;;;;;5074955;27;45388;-76
2022/06/01 11:04:19;;;;;;;;;1.25;1.00;;;;;;;;5063757;28;45367;-75
2022/06/01 11:06:52;;;;;;;;;2.00;0.33;;;;;;;;5067790;28;46209;-75
2022/06/01 11:09:38;;;;;;;;;1.00;1.00;;;;;;;;5071940;27;45539;-75
2022/06/01 11:12:12;;;;;;;;;1.00;1.00;;;;;;;;5071927;28;45216;-75
2022/06/01 11:14:39;;;;;;;;;1.00;1.00;;;;;;;;5074415;27;45390;-75
2022/06/01 11:17:24;;;;;;;;;1.00;1.00;;;;;;;;5070785;27;46069;-75
2022/06/01 11:20:15;;;;;;;;;1.33;1.33;;;;;;;;5070198;28;46617;-75
2022/06/01 11:22:51;;;;;;;;;1.67;1.00;;;;;;;;5061562;27;45286;-75
2022/06/01 11:25:41;;;;;;;;;1.00;1.00;;;;;;;;5078585;27;45511;-74
2022/06/01 11:28:11;;;;;;;;;1.50;1.50;;;;;;;;5076205;27;47236;-75
2022/06/01 11:30:51;;;;;;;;;1.50;1.00;;;;;;;;5066638;27;45627;-75
2022/06/01 11:33:24;;;;;;;;;1.25;1.00;;;;;;;;5068120;27;45270;-75
2022/06/01 11:36:02;;;;;;;;;2.50;1.00;;;;;;;;5059916;28;45275;-75
2022/06/01 11:38:35;;;;;;;;;1.67;1.67;;;;;;;;5073937;28;46366;-73
2022/06/01 11:41:03;;;;;;;;;1.00;1.00;;;;;;;;5082925;27;45485;-75
2022/06/01 11:43:35;;;;;;;;;2.00;2.00;;;;;;;;5073704;28;45340;-75
2022/06/01 11:46:03;;;;;;;;;3.00;2.00;;;;;;;;5063874;27;45441;-75
2022/06/01 11:48:30;;;;;;;;;2.33;1.67;;;;;;;;5062713;27;46224;-75
2022/06/01 11:51:03;;;;;;;;;2.00;2.00;;;;;;;;5063962;28;45381;-75
2022/06/01 11:53:47;;;;;;;;;2.33;1.00;;;;;;;;5059228;28;45454;-75
2022/06/01 11:56:35;;;;;;;;;2.00;2.00;;;;;;;;5066829;27;45410;-76
2022/06/01 11:59:00;;;;;;;;;2.00;2.00;;;;;;;;5054000;28;46333;-75
2022/06/01 12:01:34;;;;;;;;;1.50;1.50;;;;;;;;5062066;28;45474;-75
2022/06/01 12:04:02;;;;;;;;;1.00;1.00;;;;;;;;5070594;27;45260;-75
2022/06/01 12:06:49;;;;;;;;;1.00;1.00;;;;;;;;5067660;28;45554;-75
2022/06/01 12:09:22;;;;;;;;;2.00;2.00;;;;;;;;5062571;28;46075;-75
2022/06/01 12:11:47;;;;;;;;;2.00;2.00;;;;;;;;5062467;27;45375;-75
2022/06/01 12:14:18;;;;;;;;;4.00;2.00;;;;;;;;5062276;27;45720;-76
2022/06/01 12:16:43;;;;;;;;;1.67;1.00;;;;;;;;5069182;28;45394;-75
2022/06/01 12:19:13;;;;;;;;;2.00;2.00;;;;;;;;5063458;28;51998;-75
2022/06/01 12:21:41;;;;;;;;;1.50;1.50;;;;;;;;5061840;28;45671;-75
2022/06/01 12:30:00;;;;;;;;;2.75;2.00;;;;;;;;5060910;28;45401;-75
2022/06/01 12:32:26;;;;;;;;;2.33;1.67;;;;;;;;5073561;28;45513;-75
2022/06/01 12:34:57;;;;;;;;;2.00;2.00;;;;;;;;5072795;28;45374;-75
2022/06/01 12:37:42;;;;;;;;;1.67;1.67;;;;;;;;5076474;27;45304;-75
2022/06/01 12:40:13;;;;;;;;;1.33;1.33;;;;;;;;5065244;28;46268;-74
2022/06/01 12:42:42;;;;;;;;;1.00;1.00;;;;;;;;5065274;27;45592;-75
2022/06/01 12:45:11;;;;;;;;;1.33;1.33;;;;;;;;5066394;27;45485;-72
2022/06/01 12:47:41;;;;;;;;;1.00;1.00;;;;;;;;5074819;27;45375;-75
2022/06/01 12:50:10;;;;;;;;;4.33;2.00;;;;;;;;5067688;27;46317;-75
2022/06/01 12:52:35;;;;;;;;;2.00;1.00;;;;;;;;5061151;28;45314;-75
2022/06/01 12:55:03;;;;;;;;;2.50;2.00;;;;;;;;5070500;27;45612;-73
2022/06/01 12:57:31;;;;;;;;;2.00;2.00;;;;;;;;5070189;27;45566;-74
2022/06/01 13:00:01;;;;;;;;;1.67;1.67;;;;;;;;5061279;28;45485;-75
2022/06/01 13:02:28;;;;;;;;;2.00;2.00;;;;;;;;5058081;28;45504;-75
2022/06/01 13:04:54;;;;;;;;;2.25;2.00;;;;;;;;5072690;28;45293;-75
2022/06/01 13:07:22;;;;;;;;;1.75;1.00;;;;;;;;5071320;28;45669;-75
2022/06/01 13:09:56;;;;;;;;;2.00;2.00;;;;;;;;5064006;28;45584;-75
2022/06/01 13:12:22;;;;;;;;;1.00;1.00;;;;;;;;5068644;27;45412;-75
2022/06/01 13:14:47;;;;;;;;;3.67;2.00;;;;;;;;5073122;27;45334;-74
2022/06/01 13:17:14;;;;;;;;;2.00;1.00;;;;;;;;5074060;28;45497;-75
2022/06/01 13:19:39;;;;;;;;;3.00;3.00;;;;;;;;5062216;27;45472;-75
2022/06/01 13:22:19;;;;;;;;;2.00;2.00;;;;;;;;5061090;28;45288;-75
2022/06/01 13:24:47;;;;;;;;;3.00;1.75;;;;;;;;5061386;28;45336;-75
2022/06/01 13:27:12;;;;;;;;;5.25;2.00;;;;;;;;5064865;28;45421;-74
2022/06/01 13:29:40;;;;;;;;;1.00;1.00;;;;;;;;5071505;27;45412;-74
2022/06/01 13:32:07;;;;;;;;;2.00;2.00;;;;;;;;5055391;28;45401;-74
2022/06/01 13:34:38;;;;;;;;;3.00;3.00;;;;;;;;5072027;28;45384;-74
2022/06/01 13:37:24;;;;;;;;;3.33;1.67;;;;;;;;5062127;27;45550;-74
2022/06/01 13:39:49;;;;;;;;;2.00;2.00;;;;;;;;5060543;28;46355;-75
2022/06/01 13:42:30;;;;;;;;;3.00;2.00;;;;;;;;5061589;28;45376;-74
2022/06/01 13:45:04;;;;;;;;;2.00;2.00;;;;;;;;5071148;28;45409;-75
2022/06/01 13:47:42;;;;;;;;;2.25;1.00;;;;;;;;5057729;28;45547;-75
2022/06/01 13:50:15;;;;;;;;;2.00;1.00;;;;;;;;5057014;28;46066;-75
2022/06/01 13:52:46;;;;;;;;;2.00;2.00;;;;;;;;5081079;27;45493;-73
2022/06/01 13:55:23;;;;;;;;;3.67;2.00;;;;;;;;5069723;27;45509;-75
2022/06/01 13:57:51;;;;;;;;;1.00;1.00;;;;;;;;5072228;27;45591;-75
2022/06/01 14:00:25;;;;;;;;;1.00;1.00;;;;;;;;5067644;27;46475;-74
2022/06/01 14:02:55;;;;;;;;;2.00;2.00;;;;;;;;5059630;28;45502;-75
2022/06/01 14:05:22;;;;;;;;;2.50;2.00;;;;;;;;5059183;27;45278;-75
2022/06/01 14:07:49;;;;;;;;;1.00;1.00;;;;;;;;5062417;27;45433;-75
2022/06/01 14:10:14;;;;;;;;;2.00;2.00;;;;;;;;5060540;28;46105;-75
2022/06/01 14:12:42;;;;;;;;;1.75;1.75;;;;;;;;5064836;27;45544;-75
2022/06/01 14:15:08;;;;;;;;;4.00;3.00;;;;;;;;5068808;27;45466;-75
2022/06/01 14:17:33;;;;;;;;;1.50;1.50;;;;;;;;5071929;27;45549;-75
2022/06/01 14:19:58;;;;;;;;;1.25;1.25;;;;;;;;5057173;28;46259;-75
2022/06/01 14:22:23;;;;;;;;;3.00;3.00;;;;;;;;5070925;28;45366;-74
2022/06/01 14:30:16;;;;;;;;;1.75;1.75;;;;;;;;5068264;28;45706;-75
2022/06/01 14:32:45;;;;;;;;;1.67;1.00;;;;;;;;5071250;27;45744;-75
2022/06/01 14:35:11;;;;;;;;;1.25;1.25;;;;;;;;5073019;28;45403;-75
2022/06/01 14:37:36;;;;;;;;;2.00;2.00;;;;;;;;5071132;28;45629;-75
2022/06/01 14:40:02;;;;;;;;;1.50;1.25;;;;;;;;5068660;27;46273;-75
2022/06/01 14:42:27;;;;;;;;;1.00;1.00;;;;;;;;5068732;28;45401;-75
2022/06/01 14:44:52;;;;;;;;;1.00;1.00;;;;;;;;5068430;27;45250;-75
2022/06/01 14:47:18;;;;;;;;;2.00;2.00;;;;;;;;5073122;27;45507;-75
2022/06/01 14:49:43;;;;;;;;;1.25;1.25;;;;;;;;5064246;27;45438;-75
2022/06/01 14:52:09;;;;;;;;;1.50;1.50;;;;;;;;5059737;27;45407;-75
2022/06/01 14:54:37;;;;;;;;;1.00;1.00;;;;;;;;5063637;28;45281;-75
2022/06/01 14:57:03;;;;;;;;;2.00;2.00;;;;;;;;5068921;27;45674;-75
2022/06/01 14:59:28;;;;;;;;;1.00;1.00;;;;;;;;5061727;27;47046;-75
2022/06/01 15:01:56;;;;;;;;;1.75;1.75;;;;;;;;5072645;28;45488;-75
2022/06/01 15:04:32;;;;;;;;;2.00;2.00;;;;;;;;5074132;27;45451;-74
2022/06/01 15:06:58;;;;;;;;;4.75;2.50;;;;;;;;5072041;28;45446;-74
2022/06/01 15:09:23;;;;;;;;;1.00;1.00;;;;;;;;5071421;28;46492;-75
2022/06/01 15:11:48;;;;;;;;;1.00;1.00;;;;;;;;5079338;27;45355;-75
2022/06/01 15:14:13;;;;;;;;;1.50;1.50;;;;;;;;5076306;28;45444;-75
2022/06/01 15:16:40;;;;;;;;;1.50;1.50;;;;;;;;5074374;27;45395;-75
2022/06/01 15:19:06;;;;;;;;;1.00;1.00;;;;;;;;5062898;28;46361;-75
2022/06/01 15:21:31;;;;;;;;;1.00;1.00;;;;;;;;5069123;27;45444;-75
2022/06/01 15:23:56;;;;;;;;;2.25;2.00;;;;;;;;5071997;27;45371;-75
2022/06/01 15:26:23;;;;;;;;;1.00;1.00;;;;;;;;5076941;27;45538;-75